Airfield :
LOGIN :

Register | Disclaimer

   EN    FR    IT 

 










Legend :    VFR   Marginal VFR   IFR   Intensive IFR   Very Intensive IFR
Visi :
Ceiling :
>= 8 km
>= 3000ft
5 to 8 km
1000 to 3000 ft
1500m to 5 km
500 to 1000 ft
800 to 1500m
200 to 500 ft
< 800m
< 200 ft
Symbols :   Thunderstorms  Fog  Heavy snow  Heavy precipitations  Wind > 20 kt
SIGMETs :     Misc.  Thunderstorms  Icing  Turbulence  Mountain Waves  Volcanic Ashes







- Airport Elevation : 137 ft


LIPS - Istrana AFB Treviso

CURRENT METAR :
  • 200455Z 26003KT 9999 FEW060 12/10 Q1012 RMK BKN BKN140 VIS MIN 9999 WIND THR26 26003KT WIND THR08 26003KT BLU

EXPIRED METARs :
  • 200355Z 03002KT CAVOK 12/11 Q1013 RMK BKN BKN140 VIS MIN 9999 WIND THR26 05003KT WIND THR08 05004KT BLU
  • 200255Z 27003KT 9999 FEW070 13/11 Q1013 RMK BKN BKN140 VIS MIN 9999 WIND THR26 25002KT WIND THR08 25003KT BLU

TAF TAF LIPS
Valid from the 20 at 06:00 until the 20 at 15:00 UTC


200500Z 2006/2015 22005KT 9999 FEW070
No reported NOTAMs for that airfield.



MET'MAP, your aeronautical weather chart ! - Copyright ORBIFLY December 2007 - Disclaimer

ORBIFLY MET'MAP TEAM :

Programming & Development : Alexandra Zaïnal
Concept & Development : Baudouin d'Aumeries
Co-Development & Prog : Marc-Olivier Méhu
Technical & hardware support : Manuel Goepfert

Contact : metmap@orbifly.com




SOURCES & CREDITS :

   NOAA